NCAR-RAP Real-Time Weather Data

Output produced by METARs form (28 June 2016  13:11 UTC)
found at http://weather.rap.ucar.edu/surface/
 
Conditions at: KLOU observed 28 June 2016  12:53 UTC
Temperature: 25.0°C (77°F)
Dewpoint: 18.3°C (65°F) [RH = 66%]
Pressure (altimeter): 30.07 inches Hg (1018.4 mb)
[Sea-level pressure: 1017.5 mb]
Winds: from the N (360 degrees) at 5 MPH (4 knots; 2.1 m/s)
Visibility: 10 or more miles (16+ km)
Ceiling: at least 12,000 feet AGL
Clouds: sky clear below 12,000 feet AGL
Present Weather: no significant weather observed at this time
KLOU 281253Z 36004KT 10SM CLR 25/18 A3007 RMK AO2 SLP175 T02500183